Terminal Aerodrome Forecast
Issued by NWS

Home | Current Version | Previous Version | Text Only | Print | Product List | Glossary On
Versions: 1 2 3 4 5 6 7 8 9 10 11 12 13
000
FTAK31 PANC 081140
TAFAVD
TAF
PAVD 081140Z 0812/0912 07006KT P6SM FEW025 SCT050
     FM082000 09006KT 3SM -SN OVC022
     FM090000 VRB03KT 1SM -SN OVC012
     FM090500 VRB03KT P6SM VCSH BKN050
      AMD LTD TO CLD VIS AND WIND=

USA.gov is the U.S. government's official web portal to all federal, state and local government web resources and services.